Time;durP1;ratioP1;P1;durP2;ratioP2;P2;SDS_P1;SDS_P2;PMS_P1;PMS_P2;Temp;Humidity;BMP_temperature;BMP_pressure;BME280_temperature;BME280_humidity;BME280_pressure;Samples;Min_cycle;Max_cycle;Signal;HPM_P1;HPM_P2
2022/01/18 00:00:04;;;;;;;77.47;28.83;;;5.70;99.90;;;;;;5065702;28;20486;-46
2022/01/18 00:02:30;;;;;;;83.43;28.50;;;5.70;99.90;;;;;;5085206;27;20471;-46
2022/01/18 00:04:57;;;;;;;87.47;29.13;;;5.80;99.90;;;;;;5063064;28;21012;-46
2022/01/18 00:07:25;;;;;;;82.33;29.90;;;5.80;99.90;;;;;;5065280;27;20498;-47
2022/01/18 00:09:52;;;;;;;69.10;25.70;;;5.80;99.90;;;;;;5086345;27;20487;-47
2022/01/18 00:12:43;;;;;;;83.50;30.40;;;5.90;99.90;;;;;;5065312;28;20477;-47
2022/01/18 00:15:30;;;;;;;78.43;29.07;;;5.90;99.90;;;;;;5061867;28;20629;-46
2022/01/18 00:18:08;;;;;;;95.67;31.40;;;5.90;99.90;;;;;;5066886;27;20583;-46
2022/01/18 00:20:48;;;;;;;95.80;32.67;;;5.70;99.90;;;;;;5082405;27;20506;-47
2022/01/18 00:23:17;;;;;;;92.13;32.30;;;5.60;99.90;;;;;;5054976;28;21196;-47
2022/01/18 00:25:47;;;;;;;80.47;28.70;;;5.60;99.90;;;;;;5072339;28;20482;-48
2022/01/18 00:28:15;;;;;;;81.63;30.73;;;5.70;99.90;;;;;;5074134;28;20508;-50
2022/01/18 00:31:09;;;;;;;74.37;29.27;;;5.80;99.90;;;;;;5089248;28;20487;-47
2022/01/18 00:34:00;;;;;;;96.07;31.00;;;5.80;99.90;;;;;;5078007;28;20464;-47
2022/01/18 00:36:37;;;;;;;118.50;37.53;;;5.80;99.90;;;;;;5084299;28;20472;-46
2022/01/18 00:39:07;;;;;;;93.07;32.27;;;5.90;99.90;;;;;;5078729;28;20471;-47
2022/01/18 00:41:35;;;;;;;83.67;32.87;;;5.90;99.90;;;;;;5081937;28;20498;-47
2022/01/18 00:44:02;;;;;;;86.60;30.90;;;6.00;99.90;;;;;;5075845;28;20487;-46
2022/01/18 00:46:29;;;;;;;75.43;31.23;;;5.90;99.90;;;;;;5078366;28;21059;-47
2022/01/18 00:48:58;;;;;;;98.77;33.30;;;5.90;99.90;;;;;;5075739;28;20488;-47
2022/01/18 00:51:26;;;;;;;174.30;42.27;;;5.70;99.90;;;;;;5083078;28;20832;-47
2022/01/18 00:53:55;;;;;;;99.07;32.30;;;5.60;99.90;;;;;;5082833;28;20480;-46
2022/01/18 00:56:26;;;;;;;97.90;31.27;;;5.70;99.90;;;;;;5074156;28;20751;-46
2022/01/18 00:58:54;;;;;;;111.37;33.53;;;5.70;99.90;;;;;;5072769;28;20463;-46
2022/01/18 01:01:25;;;;;;;149.30;40.13;;;5.60;99.90;;;;;;5077991;28;20494;-46
2022/01/18 01:03:54;;;;;;;106.50;36.80;;;;;;;;;;5080160;28;20481;-47
2022/01/18 01:06:22;;;;;;;108.17;37.73;;;5.50;99.90;;;;;;5077894;28;20472;-46
2022/01/18 01:08:50;;;;;;;148.90;36.90;;;5.50;99.90;;;;;;5081778;28;20493;-47
2022/01/18 01:11:17;;;;;;;183.33;48.57;;;5.60;99.90;;;;;;5069865;27;20566;-46
2022/01/18 01:13:49;;;;;;;78.80;30.03;;;5.60;99.90;;;;;;5101191;27;20483;-46
2022/01/18 01:16:39;;;;;;;106.30;35.37;;;5.70;99.90;;;;;;5097646;27;21044;-47
2022/01/18 01:19:25;;;;;;;92.00;31.20;;;5.70;99.90;;;;;;5070734;28;20858;-46
2022/01/18 01:35:45;;;;;;;95.70;30.83;;;5.70;99.90;;;;;;5080748;28;20578;-47
2022/01/18 01:43:49;;;;;;;107.57;33.30;;;5.70;99.90;;;;;;5079400;28;20614;-47
2022/01/18 01:46:18;;;;;;;99.47;33.10;;;5.70;99.90;;;;;;5078674;27;20467;-47
2022/01/18 01:48:50;;;;;;;99.20;31.17;;;5.80;99.90;;;;;;5098203;27;20463;-47
2022/01/18 01:51:17;;;;;;;115.07;34.37;;;5.90;99.90;;;;;;5079879;28;20478;-47
2022/01/18 01:53:43;;;;;;;92.23;32.03;;;5.90;99.90;;;;;;5068758;28;20475;-47
2022/01/18 01:56:10;;;;;;;89.00;31.53;;;5.90;99.90;;;;;;5078675;28;23390;-46
2022/01/18 01:58:37;;;;;;;85.20;31.03;;;6.00;99.90;;;;;;5078972;28;20492;-47
2022/01/18 02:01:07;;;;;;;82.07;27.70;;;6.00;99.90;;;;;;5078530;28;20484;-47
2022/01/18 02:03:36;;;;;;;92.43;28.83;;;6.00;99.90;;;;;;5068700;28;20492;-50
2022/01/18 02:06:04;;;;;;;93.90;32.30;;;6.10;99.90;;;;;;5071979;27;20893;-47
2022/01/18 02:08:30;;;;;;;77.63;30.90;;;6.10;99.90;;;;;;5095042;27;20489;-47
2022/01/18 02:10:57;;;;;;;79.20;28.50;;;6.10;99.90;;;;;;5080514;28;20873;-46
2022/01/18 02:13:24;;;;;;;88.57;30.57;;;6.00;99.90;;;;;;5077350;28;20480;-47
2022/01/18 02:16:13;;;;;;;100.00;28.40;;;6.00;99.90;;;;;;5084333;28;20480;-47
2022/01/18 02:24:12;;;;;;;101.03;32.20;;;6.20;99.90;;;;;;5074704;28;20614;-47
2022/01/18 02:26:39;;;;;;;104.33;29.70;;;6.30;99.90;;;;;;5080449;28;20470;-47
2022/01/18 02:29:08;;;;;;;104.43;32.30;;;6.20;99.90;;;;;;5078821;28;20564;-47
2022/01/18 02:31:36;;;;;;;96.13;31.47;;;6.20;99.90;;;;;;5079680;28;20485;-47
2022/01/18 02:34:04;;;;;;;103.57;33.70;;;6.20;99.90;;;;;;5058953;28;20485;-46
2022/01/18 02:36:33;;;;;;;101.27;32.80;;;6.20;99.90;;;;;;5089638;28;20977;-46
2022/01/18 02:39:00;;;;;;;90.13;28.70;;;6.20;99.90;;;;;;5081069;28;20484;-46
2022/01/18 02:41:30;;;;;;;92.03;31.47;;;6.10;99.90;;;;;;5080216;28;20484;-47
2022/01/18 02:43:58;;;;;;;96.83;30.10;;;6.00;99.90;;;;;;5076792;28;20493;-46
2022/01/18 02:46:27;;;;;;;85.23;27.80;;;6.00;99.90;;;;;;5075956;28;20513;-46
2022/01/18 02:48:54;;;;;;;104.23;33.00;;;6.10;99.90;;;;;;5087849;28;20713;-47
2022/01/18 02:51:21;;;;;;;96.13;30.93;;;6.10;99.90;;;;;;5082015;28;20871;-46
2022/01/18 02:54:01;;;;;;;104.53;30.20;;;6.10;99.90;;;;;;5079967;28;20475;-47
2022/01/18 02:56:32;;;;;;;106.53;30.13;;;6.10;99.90;;;;;;5079531;28;20483;-46
2022/01/18 02:59:06;;;;;;;89.93;30.27;;;6.10;99.90;;;;;;5075124;27;20540;-46
2022/01/18 03:04:17;;;;;;;107.97;32.07;;;6.20;99.90;;;;;;5078629;28;20498;-47
2022/01/18 03:06:44;;;;;;;90.60;32.43;;;6.20;99.90;;;;;;5080690;28;20499;-47
2022/01/18 03:09:12;;;;;;;97.83;30.63;;;6.20;99.90;;;;;;5061157;28;20465;-46
2022/01/18 03:11:39;;;;;;;101.10;31.27;;;6.20;99.90;;;;;;5085010;27;20494;-47
2022/01/18 03:14:06;;;;;;;108.23;31.10;;;6.20;99.90;;;;;;5065404;27;20535;-47
2022/01/18 03:16:33;;;;;;;92.20;30.50;;;6.20;99.90;;;;;;5083266;27;20488;-47
2022/01/18 03:19:00;;;;;;;88.40;27.73;;;6.20;99.90;;;;;;5081173;28;20545;-47
2022/01/18 03:21:26;;;;;;;79.17;28.80;;;6.20;99.90;;;;;;5076314;28;20479;-46
2022/01/18 03:24:09;;;;;;;88.40;29.53;;;6.20;99.90;;;;;;5039965;28;20483;-46
2022/01/18 03:28:04;;;;;;;59.40;25.07;;;6.20;99.90;;;;;;5058312;28;20488;-47
2022/01/18 03:29:23;;;;;;;83.00;26.37;;;6.30;99.90;;;;;;5050514;28;20481;-47
2022/01/18 03:31:50;;;;;;;76.47;28.27;;;6.30;99.90;;;;;;5065950;28;20492;-47
2022/01/18 03:34:17;;;;;;;85.23;30.10;;;6.40;99.90;;;;;;5058785;28;20631;-46
2022/01/18 03:36:44;;;;;;;78.53;28.67;;;6.40;99.90;;;;;;5064905;28;20503;-46
2022/01/18 03:39:11;;;;;;;79.07;28.17;;;6.40;99.90;;;;;;5052542;28;20515;-46
2022/01/18 03:41:39;;;;;;;96.07;29.90;;;6.50;99.90;;;;;;5071145;28;20473;-47
2022/01/18 03:44:06;;;;;;;93.87;30.30;;;6.50;99.90;;;;;;5053072;28;20492;-46
2022/01/18 03:46:36;;;;;;;92.07;31.63;;;6.50;99.90;;;;;;5062284;28;20981;-46
2022/01/18 03:49:04;;;;;;;96.13;30.70;;;6.40;99.90;;;;;;5065470;28;21005;-46
2022/01/18 03:51:31;;;;;;;87.43;28.43;;;6.40;99.90;;;;;;5065376;28;21220;-46
2022/01/18 03:53:58;;;;;;;67.10;26.87;;;6.50;99.90;;;;;;5056456;28;20811;-47
2022/01/18 03:56:25;;;;;;;81.57;29.80;;;6.50;99.90;;;;;;5044839;28;20492;-46
2022/01/18 03:58:53;;;;;;;77.93;25.70;;;6.50;99.90;;;;;;5065319;28;20556;-46
2022/01/18 04:01:20;;;;;;;93.97;30.83;;;6.60;99.90;;;;;;5068504;28;20486;-46
2022/01/18 04:03:47;;;;;;;85.20;30.63;;;6.50;99.90;;;;;;5059743;28;20481;-46
2022/01/18 04:06:14;;;;;;;78.63;26.87;;;6.50;99.90;;;;;;5060088;28;21033;-46
2022/01/18 04:08:41;;;;;;;90.80;29.70;;;;;;;;;;5060292;28;20473;-47
2022/01/18 04:11:08;;;;;;;109.40;30.50;;;6.50;99.90;;;;;;5061146;28;20960;-46
2022/01/18 04:13:34;;;;;;;84.27;29.13;;;6.50;99.90;;;;;;5066523;27;20478;-46
2022/01/18 04:16:02;;;;;;;91.70;27.40;;;6.40;99.90;;;;;;5059191;27;20494;-47
2022/01/18 04:18:34;;;;;;;105.70;27.10;;;6.40;99.90;;;;;;5055102;28;20480;-46
2022/01/18 04:29:14;;;;;;;83.93;28.20;;;6.40;99.90;;;;;;5057936;28;20517;-46
2022/01/18 04:31:42;;;;;;;57.30;23.53;;;6.40;99.90;;;;;;5060187;28;20468;-46
2022/01/18 04:34:09;;;;;;;86.00;29.03;;;6.50;99.90;;;;;;5046045;28;20481;-46
2022/01/18 04:36:36;;;;;;;79.30;27.90;;;6.50;99.90;;;;;;5055674;28;20488;-47
2022/01/18 04:39:03;;;;;;;92.73;27.00;;;6.60;99.90;;;;;;5058174;28;20476;-46
2022/01/18 04:41:31;;;;;;;62.17;24.00;;;6.70;99.90;;;;;;5058881;28;20482;-47
2022/01/18 04:44:16;;;;;;;81.50;25.63;;;6.70;99.90;;;;;;5059291;28;20970;-47
2022/01/18 04:49:29;;;;;;;80.27;28.50;;;6.70;99.90;;;;;;5055759;28;21008;-46
2022/01/18 04:51:55;;;;;;;110.10;27.57;;;6.60;99.90;;;;;;5071586;28;20499;-47
2022/01/18 04:54:29;;;;;;;86.77;26.30;;;6.60;99.90;;;;;;5074959;28;20488;-46
2022/01/18 04:59:40;;;;;;;63.07;23.83;;;6.60;99.90;;;;;;5075165;28;21036;-46
2022/01/18 05:02:08;;;;;;;91.87;26.53;;;6.70;99.90;;;;;;5073630;28;20471;-46
2022/01/18 05:04:35;;;;;;;85.07;25.80;;;6.70;99.90;;;;;;5072947;28;20496;-46
2022/01/18 05:07:01;;;;;;;86.50;28.30;;;6.70;99.90;;;;;;5068710;28;20472;-48
2022/01/18 05:09:28;;;;;;;83.33;27.73;;;6.80;99.90;;;;;;5089632;28;20486;-46
2022/01/18 05:12:03;;;;;;;121.67;27.13;;;6.70;99.90;;;;;;5078705;28;21189;-47
2022/01/18 05:14:32;;;;;;;90.97;25.20;;;6.70;99.90;;;;;;5069581;28;20476;-47
2022/01/18 05:17:08;;;;;;;98.00;26.90;;;6.40;99.90;;;;;;5090119;28;20986;-47
2022/01/18 05:19:45;;;;;;;110.47;28.20;;;6.40;99.90;;;;;;5079368;28;20470;-46
2022/01/18 05:24:57;;;;;;;89.90;25.83;;;6.20;99.90;;;;;;5082149;27;20534;-46
2022/01/18 05:27:23;;;;;;;89.67;24.53;;;6.10;99.90;;;;;;5074829;28;20882;-46
2022/01/18 05:29:50;;;;;;;111.97;26.73;;;6.20;99.90;;;;;;5084673;28;20845;-46
2022/01/18 05:32:17;;;;;;;80.43;26.80;;;6.20;99.90;;;;;;5075940;28;20487;-46
2022/01/18 05:34:48;;;;;;;119.43;29.53;;;6.20;99.90;;;;;;5098296;27;20842;-46
2022/01/18 05:37:15;;;;;;;112.63;29.27;;;6.20;99.90;;;;;;5076610;27;20580;-46
2022/01/18 05:39:42;;;;;;;106.50;27.90;;;6.10;99.90;;;;;;5082044;28;20483;-46
2022/01/18 05:42:09;;;;;;;105.33;26.20;;;6.30;99.90;;;;;;5074973;28;20479;-46
2022/01/18 05:44:36;;;;;;;86.70;25.50;;;6.30;99.90;;;;;;5062948;28;20498;-46
2022/01/18 05:47:03;;;;;;;83.57;26.60;;;6.40;99.90;;;;;;5058573;28;20479;-46
2022/01/18 05:49:30;;;;;;;82.93;24.83;;;6.50;99.90;;;;;;5064953;28;21182;-46
2022/01/18 05:51:58;;;;;;;70.87;23.60;;;6.50;99.90;;;;;;5062902;28;20488;-46
2022/01/18 05:54:25;;;;;;;83.90;23.43;;;6.50;99.90;;;;;;5072090;27;20477;-46
2022/01/18 05:56:52;;;;;;;91.03;26.30;;;6.60;99.90;;;;;;5085526;27;20485;-47
2022/01/18 05:59:23;;;;;;;86.30;27.80;;;6.60;99.90;;;;;;5061858;28;20481;-46
2022/01/18 06:02:01;;;;;;;74.73;24.50;;;6.60;99.90;;;;;;5064122;28;20530;-46
2022/01/18 06:07:14;;;;;;;106.60;27.23;;;6.60;99.90;;;;;;5058115;28;21133;-46
2022/01/18 06:09:40;;;;;;;107.13;31.27;;;6.60;99.90;;;;;;5060883;28;20482;-47
2022/01/18 06:12:08;;;;;;;118.90;36.60;;;6.50;99.90;;;;;;5055585;28;20485;-47
2022/01/18 06:14:35;;;;;;;147.10;33.20;;;6.40;99.90;;;;;;5035042;28;20515;-46
2022/01/18 06:17:02;;;;;;;133.47;35.47;;;6.30;99.90;;;;;;5045899;28;20500;-46
2022/01/18 06:19:29;;;;;;;120.50;31.00;;;6.40;99.90;;;;;;5052425;28;20478;-46
2022/01/18 06:21:55;;;;;;;108.10;26.83;;;6.40;99.90;;;;;;5059171;28;20523;-46
2022/01/18 06:24:23;;;;;;;113.77;31.40;;;6.50;99.90;;;;;;5050205;28;20705;-47
2022/01/18 06:26:50;;;;;;;117.63;33.80;;;6.50;99.90;;;;;;5083914;27;20493;-46
2022/01/18 06:29:17;;;;;;;124.37;35.07;;;6.50;99.90;;;;;;5073597;27;20473;-46
2022/01/18 06:31:44;;;;;;;156.50;32.77;;;6.40;99.90;;;;;;5066700;28;20515;-46
2022/01/18 06:34:11;;;;;;;168.07;33.30;;;6.40;99.90;;;;;;5078018;27;21021;-46
2022/01/18 06:36:38;;;;;;;121.57;32.10;;;6.40;99.90;;;;;;5069748;28;20484;-47
2022/01/18 06:39:05;;;;;;;118.43;32.10;;;6.50;99.90;;;;;;5084684;28;21269;-46
2022/01/18 06:41:33;;;;;;;163.37;34.27;;;6.50;99.90;;;;;;5086644;27;20594;-46
2022/01/18 06:44:00;;;;;;;118.10;33.57;;;6.50;99.90;;;;;;5076579;28;20479;-49
2022/01/18 06:46:27;;;;;;;153.67;33.67;;;6.50;99.90;;;;;;5068530;28;20535;-46
2022/01/18 06:48:54;;;;;;;128.50;41.37;;;6.30;99.90;;;;;;5053755;27;20508;-46
2022/01/18 06:51:20;;;;;;;89.10;26.53;;;6.20;99.90;;;;;;5077369;28;20476;-46
2022/01/18 06:53:48;;;;;;;121.37;28.97;;;6.00;99.90;;;;;;5081029;28;21047;-46
2022/01/18 06:56:16;;;;;;;109.60;29.50;;;5.90;99.90;;;;;;5086661;27;20539;-46
2022/01/18 06:58:45;;;;;;;82.97;28.30;;;5.90;99.90;;;;;;5086061;27;20480;-46
2022/01/18 07:01:13;;;;;;;96.37;31.87;;;5.90;99.90;;;;;;5075031;27;20637;-46
2022/01/18 07:03:41;;;;;;;89.40;28.70;;;6.00;99.90;;;;;;5081454;28;20487;-46
2022/01/18 07:06:08;;;;;;;71.87;25.20;;;;;;;;;;5054206;28;20472;-46
2022/01/18 07:08:35;;;;;;;77.67;24.47;;;6.10;99.90;;;;;;5079362;28;20480;-46
2022/01/18 07:11:02;;;;;;;75.77;23.33;;;6.10;99.90;;;;;;5060446;28;20774;-46
2022/01/18 07:13:29;;;;;;;57.30;23.17;;;6.20;99.90;;;;;;5088537;27;20489;-46
2022/01/18 07:15:57;;;;;;;66.30;22.40;;;6.20;99.90;;;;;;5078768;28;20486;-46
2022/01/18 07:18:24;;;;;;;60.07;24.20;;;6.20;99.90;;;;;;5073449;27;20568;-46
2022/01/18 07:20:50;;;;;;;66.20;23.87;;;6.20;99.90;;;;;;5091911;27;20493;-46
2022/01/18 07:23:18;;;;;;;67.57;23.53;;;6.20;99.90;;;;;;5106136;27;20486;-46
2022/01/18 07:25:47;;;;;;;60.93;21.77;;;6.20;99.90;;;;;;5089093;27;20537;-46
2022/01/18 07:28:16;;;;;;;72.00;25.07;;;6.20;99.90;;;;;;5070355;28;20480;-46
2022/01/18 07:30:43;;;;;;;82.87;28.47;;;6.30;99.90;;;;;;5079390;28;20507;-46
2022/01/18 07:33:13;;;;;;;74.27;29.07;;;6.30;99.90;;;;;;5051477;28;20486;-46
2022/01/18 07:35:40;;;;;;;89.20;28.60;;;6.30;99.90;;;;;;5081385;28;20538;-46
2022/01/18 07:38:07;;;;;;;95.70;26.83;;;6.40;99.90;;;;;;5083044;28;20476;-46
2022/01/18 07:40:35;;;;;;;86.77;26.63;;;6.40;99.90;;;;;;5077276;28;20481;-46
2022/01/18 07:43:03;;;;;;;79.30;26.67;;;6.40;99.90;;;;;;5079320;28;20506;-46
2022/01/18 07:45:30;;;;;;;74.83;25.23;;;6.40;99.90;;;;;;5074450;28;20491;-46
2022/01/18 07:47:57;;;;;;;74.80;26.23;;;6.40;99.90;;;;;;5092377;28;21174;-46
2022/01/18 07:50:25;;;;;;;82.97;26.00;;;6.40;99.90;;;;;;5069615;28;20492;-46
2022/01/18 07:52:52;;;;;;;83.47;23.40;;;6.40;99.90;;;;;;5069105;28;20492;-46
2022/01/18 07:55:19;;;;;;;73.53;29.37;;;6.30;99.90;;;;;;5081699;28;20789;-46
2022/01/18 07:57:46;;;;;;;80.70;27.10;;;6.30;99.90;;;;;;5071292;28;20499;-50
2022/01/18 08:00:15;;;;;;;72.73;26.83;;;6.30;99.90;;;;;;5077598;28;20844;-46
2022/01/18 08:02:42;;;;;;;86.67;28.13;;;6.30;99.90;;;;;;5078112;28;20505;-46
2022/01/18 08:05:11;;;;;;;81.20;29.07;;;6.30;99.90;;;;;;5080142;28;20484;-46
2022/01/18 08:07:40;;;;;;;83.57;30.03;;;6.30;99.90;;;;;;5082454;28;20492;-46
2022/01/18 08:10:08;;;;;;;100.23;27.63;;;6.30;99.90;;;;;;5061552;28;20480;-46
2022/01/18 08:12:35;;;;;;;81.90;29.17;;;6.40;99.90;;;;;;5084151;28;20490;-46
2022/01/18 08:15:02;;;;;;;75.97;30.23;;;6.40;99.90;;;;;;5087915;28;20968;-46
2022/01/18 08:17:30;;;;;;;80.60;31.13;;;6.50;99.90;;;;;;5067853;28;20495;-46
2022/01/18 08:19:57;;;;;;;94.30;34.07;;;6.50;99.90;;;;;;5094507;27;20486;-46
2022/01/18 08:22:23;;;;;;;90.93;33.90;;;6.60;99.90;;;;;;5087807;27;20474;-47
2022/01/18 08:24:52;;;;;;;86.17;34.20;;;6.60;99.90;;;;;;5080098;28;20566;-46
2022/01/18 08:27:20;;;;;;;174.43;38.93;;;;;;;;;;5073961;28;21007;-46
2022/01/18 08:29:47;;;;;;;78.13;28.30;;;6.70;99.90;;;;;;5080117;28;20483;-47
2022/01/18 08:32:14;;;;;;;73.23;28.50;;;;;;;;;;5079778;28;20499;-47
2022/01/18 08:34:41;;;;;;;83.60;28.70;;;6.70;99.90;;;;;;5064835;28;20991;-46
2022/01/18 08:37:08;;;;;;;91.90;33.20;;;6.70;99.90;;;;;;5073554;28;21295;-46
2022/01/18 08:39:35;;;;;;;89.50;31.47;;;;;;;;;;5087128;28;20491;-46
2022/01/18 08:42:04;;;;;;;95.27;33.37;;;6.80;99.90;;;;;;5080833;28;21083;-47
2022/01/18 08:44:31;;;;;;;79.83;31.93;;;6.80;99.90;;;;;;5078722;28;20492;-47
2022/01/18 08:46:57;;;;;;;82.73;28.37;;;6.90;99.90;;;;;;5071165;28;20483;-46
2022/01/18 08:49:24;;;;;;;69.83;25.93;;;6.90;99.90;;;;;;5091570;28;20747;-46
2022/01/18 08:51:51;;;;;;;71.37;28.10;;;7.00;99.90;;;;;;5078577;28;20502;-52
2022/01/18 08:54:18;;;;;;;78.43;25.83;;;6.90;99.90;;;;;;5103775;27;20470;-46
2022/01/18 08:56:45;;;;;;;81.33;26.30;;;6.90;99.90;;;;;;5085386;28;20488;-46
2022/01/18 08:59:13;;;;;;;68.70;24.90;;;6.90;99.90;;;;;;5079056;28;20928;-46
2022/01/18 09:01:39;;;;;;;73.33;23.73;;;6.90;99.90;;;;;;5090712;28;20489;-46
2022/01/18 09:04:06;;;;;;;69.80;25.20;;;6.90;99.90;;;;;;5083057;28;20486;-46
2022/01/18 09:06:33;;;;;;;87.30;27.57;;;6.90;99.90;;;;;;5076770;28;20552;-47
2022/01/18 09:09:01;;;;;;;77.70;27.77;;;7.00;99.90;;;;;;5088435;28;20491;-47
2022/01/18 09:11:30;;;;;;;77.23;25.70;;;7.00;99.90;;;;;;5058079;27;20501;-46
2022/01/18 09:13:57;;;;;;;82.37;29.17;;;7.10;99.90;;;;;;5070700;27;20496;-47
2022/01/18 09:16:25;;;;;;;73.23;25.80;;;7.10;99.90;;;;;;5082877;28;20831;-46
2022/01/18 09:18:52;;;;;;;67.57;24.77;;;7.10;99.90;;;;;;5085061;28;20894;-47
2022/01/18 09:21:19;;;;;;;72.07;24.23;;;7.10;99.90;;;;;;5083778;28;20496;-47
2022/01/18 09:23:46;;;;;;;66.60;24.97;;;7.20;99.90;;;;;;5081155;28;20480;-46
2022/01/18 09:26:13;;;;;;;59.80;25.80;;;7.20;99.90;;;;;;5082927;28;20542;-46
2022/01/18 09:28:40;;;;;;;71.43;26.03;;;7.20;99.90;;;;;;5083903;28;20888;-46
2022/01/18 09:31:07;;;;;;;69.77;25.57;;;7.30;99.90;;;;;;5084315;28;20567;-46
2022/01/18 09:33:35;;;;;;;76.73;25.33;;;7.30;99.90;;;;;;5082077;28;20525;-48
2022/01/18 09:36:02;;;;;;;61.57;24.60;;;7.30;99.90;;;;;;5070339;28;20477;-46
2022/01/18 09:38:29;;;;;;;73.03;25.03;;;7.30;99.90;;;;;;5077409;28;20537;-46
2022/01/18 09:40:56;;;;;;;67.90;25.17;;;7.30;99.90;;;;;;5089846;28;20500;-47
2022/01/18 09:43:23;;;;;;;58.73;25.53;;;7.40;99.90;;;;;;5080408;28;20469;-46
2022/01/18 09:45:50;;;;;;;73.33;25.70;;;7.40;99.90;;;;;;5081182;28;20492;-46
2022/01/18 09:48:17;;;;;;;60.87;26.13;;;7.40;99.90;;;;;;5067539;28;20905;-46
2022/01/18 09:50:47;;;;;;;64.57;25.60;;;7.40;99.90;;;;;;5102624;27;20475;-46
2022/01/18 09:53:15;;;;;;;103.30;29.03;;;7.50;99.90;;;;;;5068633;27;20499;-50
2022/01/18 09:55:43;;;;;;;125.33;29.07;;;;;;;;;;5087026;28;20472;-46
2022/01/18 09:58:11;;;;;;;149.10;32.80;;;7.80;99.90;;;;;;5072433;28;20495;-46
2022/01/18 10:00:40;;;;;;;74.70;26.47;;;7.80;99.90;;;;;;5071315;28;20623;-46
2022/01/18 10:03:10;;;;;;;58.40;23.30;;;7.80;99.90;;;;;;5070472;28;20480;-46
2022/01/18 10:05:38;;;;;;;55.50;23.13;;;7.80;99.90;;;;;;5072036;28;20859;-46
2022/01/18 10:08:09;;;;;;;61.50;23.73;;;7.90;99.90;;;;;;5073594;28;20547;-46
2022/01/18 10:10:43;;;;;;;51.50;21.57;;;8.00;99.90;;;;;;5077536;28;20480;-46
2022/01/18 10:13:16;;;;;;;53.33;21.47;;;8.00;99.90;;;;;;5076598;28;20504;-46
2022/01/18 10:15:59;;;;;;;54.97;21.43;;;8.00;99.90;;;;;;5077795;28;20483;-46
2022/01/18 10:18:35;;;;;;;41.57;17.70;;;8.10;99.90;;;;;;5070990;28;20484;-46
2022/01/18 10:21:02;;;;;;;36.13;16.63;;;8.00;99.90;;;;;;5061262;28;20480;-46
2022/01/18 10:23:30;;;;;;;39.57;18.80;;;8.10;99.90;;;;;;5091884;28;20485;-46
2022/01/18 10:25:58;;;;;;;47.13;18.90;;;8.20;99.90;;;;;;5077387;28;21003;-52
2022/01/18 10:28:33;;;;;;;38.00;18.63;;;8.20;99.90;;;;;;5085230;28;20504;-46
2022/01/18 10:31:05;;;;;;;41.03;16.23;;;8.30;99.90;;;;;;5056479;28;20539;-47
2022/01/18 10:33:37;;;;;;;33.67;15.90;;;8.40;99.90;;;;;;5061134;28;20481;-46
2022/01/18 10:36:10;;;;;;;39.63;15.10;;;;;;;;;;5051065;28;20480;-47
2022/01/18 10:38:39;;;;;;;29.57;13.53;;;8.50;99.90;;;;;;5063793;28;20496;-46
2022/01/18 10:41:30;;;;;;;38.90;12.30;;;8.50;99.90;;;;;;5057375;28;20471;-46
2022/01/18 10:44:08;;;;;;;25.13;14.30;;;8.50;99.90;;;;;;5068619;28;21238;-46
2022/01/18 10:46:36;;;;;;;28.53;11.37;;;8.50;99.90;;;;;;5057870;28;20816;-46
2022/01/18 10:49:04;;;;;;;32.20;15.70;;;8.40;99.90;;;;;;5053340;28;20599;-46
2022/01/18 10:51:32;;;;;;;157.07;25.67;;;8.60;99.90;;;;;;5051202;28;20493;-46
2022/01/18 10:54:03;;;;;;;70.30;18.73;;;8.70;99.90;;;;;;5070357;28;20487;-47
2022/01/18 10:56:38;;;;;;;110.80;20.67;;;;;;;;;;5047872;28;20492;-46
2022/01/18 10:59:05;;;;;;;41.33;15.67;;;8.70;99.90;;;;;;5048097;28;20474;-47
2022/01/18 11:01:32;;;;;;;81.23;17.70;;;;;;;;;;5052320;28;21183;-46
2022/01/18 11:04:14;;;;;;;80.43;19.60;;;8.80;99.90;;;;;;5059356;28;20854;-46
2022/01/18 11:06:43;;;;;;;118.10;20.07;;;;;;;;;;5056431;28;20538;-46
2022/01/18 11:09:13;;;;;;;151.67;23.40;;;;;;;;;;5061610;28;21078;-46
2022/01/18 11:11:45;;;;;;;114.13;19.73;;;8.90;99.90;;;;;;5055235;28;20477;-45
2022/01/18 11:14:14;;;;;;;40.93;13.17;;;8.80;99.90;;;;;;5059125;28;20843;-46
2022/01/18 11:16:44;;;;;;;27.37;12.10;;;8.70;99.90;;;;;;5043492;28;20983;-46
2022/01/18 11:19:29;;;;;;;24.23;10.93;;;8.70;99.90;;;;;;5056909;28;20818;-46
2022/01/18 11:21:58;;;;;;;24.40;10.00;;;8.60;99.70;;;;;;5047728;27;20544;-46
2022/01/18 11:24:28;;;;;;;19.57;10.73;;;8.60;99.80;;;;;;5094369;27;20485;-47
2022/01/18 11:26:55;;;;;;;13.40;8.67;;;8.60;99.50;;;;;;5059886;28;20569;-51
2022/01/18 11:29:23;;;;;;;31.97;11.07;;;8.70;99.90;;;;;;5063791;28;20992;-47
2022/01/18 11:31:52;;;;;;;25.80;9.87;;;8.70;99.80;;;;;;5061030;28;20481;-47
2022/01/18 11:34:28;;;;;;;17.67;8.40;;;8.80;99.90;;;;;;5067160;28;20477;-46
2022/01/18 11:37:03;;;;;;;24.60;9.87;;;8.80;99.70;;;;;;5054962;28;21307;-47
2022/01/18 11:39:33;;;;;;;22.00;11.27;;;8.90;99.60;;;;;;5059797;28;20510;-46
2022/01/18 11:42:07;;;;;;;19.37;9.90;;;8.90;99.40;;;;;;5060200;28;20976;-46
2022/01/18 11:44:35;;;;;;;25.53;9.33;;;8.90;99.30;;;;;;5052653;28;20479;-46
2022/01/18 11:47:04;;;;;;;16.40;7.77;;;8.80;99.20;;;;;;5051920;28;20485;-46
2022/01/18 11:49:33;;;;;;;13.50;7.43;;;8.80;99.20;;;;;;5049249;28;20580;-47
2022/01/18 11:52:03;;;;;;;19.50;7.57;;;8.80;99.20;;;;;;5063651;28;20587;-46
2022/01/18 11:54:42;;;;;;;8.73;6.27;;;8.70;99.00;;;;;;5058786;28;20491;-46
2022/01/18 11:57:34;;;;;;;20.90;6.67;;;8.70;99.10;;;;;;5041975;28;20948;-47
2022/01/18 12:00:21;;;;;;;8.10;5.80;;;8.70;99.00;;;;;;5041421;28;20491;-46
2022/01/18 12:02:52;;;;;;;16.40;6.07;;;8.60;99.00;;;;;;5047669;28;20605;-46
2022/01/18 12:05:20;;;;;;;10.13;4.37;;;8.60;99.00;;;;;;5067380;27;20485;-46
2022/01/18 12:08:04;;;;;;;18.53;4.80;;;8.50;98.50;;;;;;5052517;28;20487;-46
2022/01/18 12:10:49;;;;;;;12.43;4.97;;;8.50;98.90;;;;;;5074822;27;20507;-46
2022/01/18 12:13:38;;;;;;;8.20;4.33;;;8.50;99.10;;;;;;5052903;28;20543;-46
2022/01/18 12:16:11;;;;;;;7.00;3.00;;;8.40;98.20;;;;;;5054498;28;20526;-46
2022/01/18 12:18:57;;;;;;;7.47;1.80;;;8.30;97.70;;;;;;5037120;28;20485;-46
2022/01/18 12:21:26;;;;;;;8.60;1.97;;;8.30;97.70;;;;;;5063115;28;20494;-46
2022/01/18 12:23:54;;;;;;;6.37;2.10;;;8.20;97.60;;;;;;5051603;28;20492;-46
2022/01/18 12:26:34;;;;;;;3.50;2.30;;;8.20;98.00;;;;;;5059690;28;20989;-46
2022/01/18 12:34:59;;;;;;;5.37;3.33;;;8.30;97.60;;;;;;5063580;27;20564;-46
2022/01/18 12:37:47;;;;;;;3.80;2.47;;;8.20;97.50;;;;;;5054366;28;20487;-46
2022/01/18 12:40:34;;;;;;;10.63;3.23;;;8.30;97.80;;;;;;5049856;28;20575;-44
2022/01/18 12:45:59;;;;;;;3.70;2.40;;;8.30;97.80;;;;;;5048168;28;20496;-45
2022/01/18 12:48:26;;;;;;;2.83;1.93;;;;;;;;;;5055959;28;20508;-45
2022/01/18 12:50:56;;;;;;;4.87;2.90;;;8.30;97.60;;;;;;5061475;28;20474;-44
2022/01/18 12:53:26;;;;;;;2.67;2.20;;;8.30;97.50;;;;;;5046812;28;20542;-44
2022/01/18 12:55:55;;;;;;;2.90;2.70;;;8.40;97.90;;;;;;5051990;28;21041;-46
2022/01/18 12:58:26;;;;;;;6.00;2.80;;;8.40;97.60;;;;;;5047359;28;20604;-45
2022/01/18 13:00:54;;;;;;;5.80;2.57;;;8.50;97.70;;;;;;5059512;28;21233;-45
2022/01/18 13:03:24;;;;;;;6.43;3.27;;;8.50;97.10;;;;;;5059065;28;20487;-45
2022/01/18 13:05:53;;;;;;;6.00;4.27;;;8.50;97.10;;;;;;5057568;28;20469;-45
2022/01/18 13:08:22;;;;;;;3.20;2.40;;;8.50;97.00;;;;;;5057701;28;20491;-48
2022/01/18 13:10:51;;;;;;;4.50;2.93;;;8.50;97.00;;;;;;5061263;28;20533;-45
2022/01/18 13:13:21;;;;;;;2.27;2.07;;;8.50;97.10;;;;;;5051584;28;20507;-45
2022/01/18 13:26:56;;;;;;;2.83;2.50;;;8.40;97.20;;;;;;5070546;28;20482;-44
2022/01/18 13:29:26;;;;;;;3.67;3.13;;;8.40;97.20;;;;;;5070732;28;20477;-45
2022/01/18 13:32:07;;;;;;;3.47;2.87;;;8.40;97.20;;;;;;5068523;28;20507;-45
2022/01/18 13:34:36;;;;;;;3.77;2.50;;;8.40;96.90;;;;;;5058080;28;20794;-44
2022/01/18 13:37:07;;;;;;;7.30;3.20;;;8.30;96.60;;;;;;5067733;28;20473;-45
2022/01/18 13:39:37;;;;;;;3.57;2.80;;;8.30;96.90;;;;;;5075471;28;21012;-45
2022/01/18 13:42:05;;;;;;;2.90;2.70;;;8.30;96.80;;;;;;5087415;28;20478;-44
2022/01/18 13:44:33;;;;;;;4.50;3.20;;;8.30;96.60;;;;;;5074805;28;20478;-44
2022/01/18 13:47:15;;;;;;;5.53;2.90;;;8.30;96.60;;;;;;5107505;27;20485;-45
2022/01/18 13:49:42;;;;;;;6.00;3.77;;;8.40;96.70;;;;;;5082417;28;20623;-45
2022/01/18 13:52:11;;;;;;;3.40;3.10;;;8.40;96.60;;;;;;5082425;28;20490;-45
2022/01/18 13:54:50;;;;;;;5.80;3.40;;;8.40;96.50;;;;;;5077792;28;20490;-45
2022/01/18 13:57:19;;;;;;;3.23;2.93;;;8.40;96.60;;;;;;5069915;28;20510;-45
2022/01/18 13:59:47;;;;;;;3.80;3.13;;;8.40;96.80;;;;;;5075907;27;20721;-45